Time;durP1;ratioP1;P1;durP2;ratioP2;P2;SDS_P1;SDS_P2;PMS_P1;PMS_P2;Temp;Humidity;BMP_temperature;BMP_pressure;BME280_temperature;BME280_humidity;BME280_pressure;Samples;Min_cycle;Max_cycle;Signal;HPM_P1;HPM_P2
2023/05/14 00:00:48;;;;;;;7.40;4.75;;;16.00;75.70;;;;;;4936873;29;20027;-82
2023/05/14 00:03:14;;;;;;;7.82;4.88;;;16.00;75.50;;;;;;4938211;29;20027;-81
2023/05/14 00:05:39;;;;;;;7.32;5.15;;;16.00;75.30;;;;;;4936805;29;20023;-82
2023/05/14 00:08:05;;;;;;;7.10;4.93;;;16.00;75.40;;;;;;4937003;29;20027;-82
2023/05/14 00:10:30;;;;;;;8.40;4.90;;;16.00;75.40;;;;;;4936851;29;20481;-82
2023/05/14 00:12:56;;;;;;;7.78;4.90;;;16.00;75.40;;;;;;4936838;29;20023;-82
2023/05/14 00:15:21;;;;;;;7.38;5.18;;;16.10;75.30;;;;;;4936626;29;20319;-82
2023/05/14 00:17:47;;;;;;;7.68;5.43;;;16.00;75.40;;;;;;4936696;29;20031;-81
2023/05/14 00:20:12;;;;;;;7.75;5.03;;;16.00;75.30;;;;;;4936631;29;20035;-82
2023/05/14 00:22:39;;;;;;;6.95;5.20;;;16.00;75.50;;;;;;4936739;29;20146;-81
2023/05/14 00:25:06;;;;;;;8.35;5.15;;;16.00;75.40;;;;;;4937600;29;20038;-82
2023/05/14 00:27:31;;;;;;;7.28;5.25;;;16.00;75.50;;;;;;4936529;29;20043;-80
2023/05/14 00:29:57;;;;;;;8.18;5.43;;;15.90;75.50;;;;;;4936753;29;20082;-81
2023/05/14 00:32:23;;;;;;;7.68;4.90;;;15.90;75.50;;;;;;4937861;29;20028;-82
2023/05/14 00:34:48;;;;;;;7.78;4.75;;;15.90;75.50;;;;;;4937813;29;20031;-82
2023/05/14 00:37:14;;;;;;;7.30;5.07;;;15.90;76.00;;;;;;4936778;29;20492;-82
2023/05/14 00:39:39;;;;;;;7.78;4.88;;;15.90;75.50;;;;;;4937862;29;20028;-80
2023/05/14 00:42:05;;;;;;;7.38;5.10;;;15.90;75.30;;;;;;4935914;29;20040;-82
2023/05/14 00:44:31;;;;;;;7.55;4.93;;;15.90;76.00;;;;;;4936254;29;20163;-82
2023/05/14 00:46:57;;;;;;;7.43;5.00;;;15.90;75.60;;;;;;4936578;29;20034;-82
2023/05/14 00:49:24;;;;;;;7.15;4.85;;;15.90;75.70;;;;;;4936199;29;20031;-82
2023/05/14 00:51:50;;;;;;;7.10;5.35;;;15.90;75.60;;;;;;4935411;29;20055;-82
2023/05/14 00:54:16;;;;;;;7.55;5.18;;;15.90;75.40;;;;;;4934857;29;20111;-82
2023/05/14 00:56:45;;;;;;;7.13;5.10;;;15.90;75.30;;;;;;4920235;29;20031;-82
2023/05/14 00:59:11;;;;;;;8.00;5.65;;;15.90;75.10;;;;;;4919820;29;20039;-82
2023/05/14 01:01:37;;;;;;;7.78;5.07;;;15.90;75.20;;;;;;4920217;29;20030;-82
2023/05/14 01:04:03;;;;;;;7.78;5.30;;;15.80;75.50;;;;;;4936999;29;20118;-82
2023/05/14 01:06:47;;;;;;;7.90;5.60;;;15.90;74.80;;;;;;4937116;29;20087;-82
2023/05/14 01:09:45;;;;;;;7.53;5.10;;;15.90;74.80;;;;;;4919801;29;20032;-81
2023/05/14 01:12:17;;;;;;;8.40;5.60;;;15.90;74.70;;;;;;4905012;29;20040;-82
2023/05/14 01:14:51;;;;;;;;;;;15.80;74.60;;;;;;4937418;29;20020;-81
2023/05/14 01:17:19;;;;;;;8.20;5.53;;;15.90;74.70;;;;;;4936784;29;19913;-83
2023/05/14 01:19:46;;;;;;;6.78;5.00;;;15.80;74.50;;;;;;4919808;29;20062;-83
2023/05/14 01:22:12;;;;;;;7.95;5.90;;;15.90;74.70;;;;;;4936809;29;20508;-83
2023/05/14 01:24:38;;;;;;;7.28;5.40;;;15.90;74.60;;;;;;4936609;29;20500;-82
2023/05/14 01:27:20;;;;;;;7.00;5.57;;;15.90;74.40;;;;;;4919566;29;20028;-83
2023/05/14 01:29:56;;;;;;;12.00;5.80;;;15.90;74.30;;;;;;4936847;29;20038;-82
2023/05/14 01:32:23;;;;;;;7.75;5.40;;;15.90;74.40;;;;;;4919577;29;20031;-82
2023/05/14 01:34:49;;;;;;;8.18;5.72;;;15.80;74.50;;;;;;4919488;29;20448;-81
2023/05/14 01:37:15;;;;;;;8.23;5.68;;;15.80;74.40;;;;;;4919497;29;20020;-82
2023/05/14 01:39:41;;;;;;;8.13;5.50;;;15.90;74.30;;;;;;4919434;29;20108;-82
2023/05/14 01:42:08;;;;;;;10.23;5.80;;;15.80;74.30;;;;;;4919489;29;20118;-81
2023/05/14 01:44:34;;;;;;;7.68;5.75;;;15.80;74.00;;;;;;4919189;29;20035;-82
2023/05/14 01:46:59;;;;;;;7.63;5.63;;;15.80;74.20;;;;;;4936472;29;20047;-82
2023/05/14 01:49:25;;;;;;;7.30;5.32;;;15.80;74.30;;;;;;4934897;29;20032;-82
2023/05/14 01:51:50;;;;;;;7.97;5.65;;;15.80;74.40;;;;;;4918887;29;20035;-82
2023/05/14 01:54:16;;;;;;;8.57;5.38;;;15.80;74.50;;;;;;4918694;29;20425;-82
2023/05/14 01:56:41;;;;;;;8.85;5.60;;;15.80;74.60;;;;;;4935397;29;20028;-82
2023/05/14 01:59:07;;;;;;;8.45;6.00;;;15.80;74.70;;;;;;4920074;29;20454;-82
2023/05/14 02:01:32;;;;;;;9.25;5.80;;;15.80;74.80;;;;;;4919247;29;20034;-82
2023/05/14 02:03:58;;;;;;;7.13;5.78;;;15.80;74.80;;;;;;4918965;29;20107;-82
2023/05/14 02:06:24;;;;;;;8.90;5.88;;;15.80;74.90;;;;;;4919087;29;20020;-82
2023/05/14 02:08:49;;;;;;;8.80;6.25;;;15.70;75.00;;;;;;4918871;29;20039;-82
2023/05/14 02:11:15;;;;;;;7.18;5.85;;;15.70;75.00;;;;;;4934779;29;20032;-83
2023/05/14 02:13:40;;;;;;;9.45;6.10;;;15.80;75.10;;;;;;4918847;29;20027;-82
2023/05/14 02:16:06;;;;;;;8.45;6.00;;;15.70;75.10;;;;;;4919089;29;20024;-82
2023/05/14 02:18:31;;;;;;;7.80;6.47;;;15.70;75.00;;;;;;4935721;29;20027;-82
2023/05/14 02:20:57;;;;;;;8.55;6.35;;;15.70;75.00;;;;;;4934804;29;20027;-82
2023/05/14 02:23:22;;;;;;;8.23;6.47;;;15.70;75.00;;;;;;4918733;29;20366;-83
2023/05/14 02:25:48;;;;;;;8.45;6.35;;;15.60;75.10;;;;;;4918930;29;20080;-82
2023/05/14 02:28:13;;;;;;;8.05;5.80;;;15.70;75.20;;;;;;4935686;29;20515;-82
2023/05/14 02:30:39;;;;;;;8.10;6.18;;;15.70;75.20;;;;;;4918480;29;20083;-83
2023/05/14 02:33:04;;;;;;;10.45;6.75;;;15.70;75.20;;;;;;4935747;29;20063;-82
2023/05/14 02:35:30;;;;;;;7.85;6.50;;;15.70;75.20;;;;;;4918562;29;20028;-82
2023/05/14 02:37:55;;;;;;;8.25;6.75;;;15.70;75.20;;;;;;4934553;29;20106;-82
2023/05/14 02:40:21;;;;;;;9.32;6.20;;;15.70;75.20;;;;;;4935771;29;20032;-83
2023/05/14 02:42:46;;;;;;;8.40;6.43;;;15.70;75.20;;;;;;4934902;29;20035;-83
2023/05/14 02:45:12;;;;;;;8.73;6.75;;;15.70;75.30;;;;;;4918827;29;20027;-82
2023/05/14 02:47:37;;;;;;;8.05;6.78;;;15.70;75.30;;;;;;4916767;29;20075;-82
2023/05/14 02:50:05;;;;;;;7.85;6.47;;;15.70;75.30;;;;;;4918421;29;20395;-82
2023/05/14 02:52:30;;;;;;;8.90;6.90;;;15.70;75.20;;;;;;4934365;29;20396;-82
2023/05/14 02:54:56;;;;;;;9.00;6.75;;;15.80;75.30;;;;;;4918354;29;20031;-82
2023/05/14 02:57:21;;;;;;;8.45;6.93;;;15.70;75.20;;;;;;4918371;29;20585;-82
2023/05/14 02:59:47;;;;;;;9.27;6.95;;;15.70;75.20;;;;;;4934082;29;20031;-81
2023/05/14 03:02:12;;;;;;;9.35;7.22;;;15.80;75.20;;;;;;4934119;29;20030;-82
2023/05/14 03:04:38;;;;;;;10.32;7.43;;;15.80;75.20;;;;;;4920681;29;20027;-82
2023/05/14 03:07:03;;;;;;;10.32;7.95;;;15.70;75.10;;;;;;4938266;29;20059;-83
2023/05/14 03:09:29;;;;;;;9.45;7.60;;;15.80;75.20;;;;;;4922070;29;20024;-82
2023/05/14 03:11:55;;;;;;;10.43;7.60;;;15.70;75.10;;;;;;4938243;29;20020;-82
2023/05/14 03:14:20;;;;;;;10.48;7.65;;;15.70;75.00;;;;;;4921993;29;20034;-83
2023/05/14 03:16:46;;;;;;;8.70;7.80;;;15.70;75.00;;;;;;4937838;29;20083;-82
2023/05/14 03:19:11;;;;;;;9.85;7.90;;;15.70;74.90;;;;;;4922117;29;20035;-82
2023/05/14 03:21:37;;;;;;;9.50;8.13;;;15.70;75.00;;;;;;4922076;29;20370;-82
2023/05/14 03:24:02;;;;;;;9.18;7.45;;;15.70;74.90;;;;;;4921920;29;20472;-82
2023/05/14 03:26:28;;;;;;;8.88;7.85;;;15.70;74.90;;;;;;4939336;29;20028;-82
2023/05/14 03:28:53;;;;;;;8.77;7.88;;;15.70;75.00;;;;;;4922168;29;20035;-81
2023/05/14 03:31:19;;;;;;;13.32;8.07;;;15.60;75.00;;;;;;4921867;29;20027;-82
2023/05/14 03:33:44;;;;;;;9.40;7.72;;;15.60;74.90;;;;;;4921714;29;20020;-82
2023/05/14 03:36:10;;;;;;;9.70;7.70;;;15.60;74.90;;;;;;4921983;29;20047;-82
2023/05/14 03:38:35;;;;;;;10.50;8.15;;;15.60;74.80;;;;;;4921765;29;20118;-82
2023/05/14 03:41:01;;;;;;;23.60;9.32;;;15.60;74.70;;;;;;4937578;29;20088;-82
2023/05/14 03:43:26;;;;;;;16.75;8.57;;;15.60;74.60;;;;;;4921537;29;20473;-81
2023/05/14 03:45:52;;;;;;;11.65;8.40;;;15.60;74.60;;;;;;4937584;29;20082;-82
2023/05/14 03:48:18;;;;;;;12.27;8.27;;;15.60;74.60;;;;;;4921801;29;20035;-82
2023/05/14 03:50:44;;;;;;;12.88;8.43;;;15.60;74.50;;;;;;4937381;29;20027;-82
2023/05/14 03:53:09;;;;;;;14.70;8.57;;;15.60;74.50;;;;;;4921536;29;20024;-82
2023/05/14 03:55:35;;;;;;;9.57;8.20;;;15.60;74.60;;;;;;4938869;29;20031;-82
2023/05/14 03:58:01;;;;;;;10.18;8.07;;;15.60;74.60;;;;;;4921190;29;20393;-82
2023/05/14 04:00:27;;;;;;;9.50;7.75;;;15.60;74.70;;;;;;4921679;29;20027;-82
2023/05/14 04:02:53;;;;;;;9.82;7.43;;;15.60;74.80;;;;;;4935913;29;20592;-82
2023/05/14 04:05:18;;;;;;;10.15;7.40;;;15.60;74.80;;;;;;4902467;29;20092;-82
2023/05/14 04:07:44;;;;;;;9.65;7.57;;;15.70;74.80;;;;;;4902308;29;20111;-82
2023/05/14 04:10:10;;;;;;;10.27;7.70;;;15.60;74.70;;;;;;4902312;29;20032;-82
2023/05/14 04:12:35;;;;;;;9.38;7.95;;;15.60;74.70;;;;;;4917996;29;20030;-82
2023/05/14 04:15:01;;;;;;;10.10;7.72;;;15.60;74.80;;;;;;4901424;29;20043;-82
2023/05/14 04:17:26;;;;;;;10.18;7.93;;;15.60;74.90;;;;;;4919119;29;20441;-81
2023/05/14 04:19:52;;;;;;;8.23;7.05;;;15.60;74.90;;;;;;4902317;29;20032;-82
2023/05/14 04:22:17;;;;;;;8.55;7.22;;;15.60;74.80;;;;;;4902347;29;20120;-82
2023/05/14 04:24:43;;;;;;;9.02;7.47;;;15.60;74.80;;;;;;4917458;29;20024;-83
2023/05/14 04:27:08;;;;;;;10.30;7.45;;;15.70;74.80;;;;;;4901966;29;20028;-82
2023/05/14 04:29:34;;;;;;;8.95;7.45;;;15.60;74.80;;;;;;4901828;29;20397;-83
2023/05/14 04:31:59;;;;;;;9.40;7.55;;;15.60;74.70;;;;;;4917556;29;20090;-82
2023/05/14 04:34:25;;;;;;;9.45;7.40;;;15.70;74.80;;;;;;4901806;29;20053;-82
2023/05/14 04:36:51;;;;;;;10.23;7.68;;;15.70;74.80;;;;;;4917686;29;20568;-82
2023/05/14 04:39:17;;;;;;;8.13;7.22;;;15.70;74.90;;;;;;4918586;29;20434;-82
2023/05/14 04:41:43;;;;;;;8.68;7.18;;;15.70;74.80;;;;;;4901745;29;20076;-82
2023/05/14 04:44:08;;;;;;;10.45;7.28;;;15.60;74.80;;;;;;4901414;29;20016;-82
2023/05/14 04:46:34;;;;;;;9.63;7.93;;;15.60;74.90;;;;;;4907644;29;20122;-82
2023/05/14 04:48:59;;;;;;;10.52;7.50;;;15.60;74.90;;;;;;4902913;29;20028;-82
2023/05/14 04:51:25;;;;;;;8.65;6.93;;;15.60;74.90;;;;;;4901487;29;20437;-82
2023/05/14 04:53:50;;;;;;;9.52;7.40;;;15.60;74.90;;;;;;4901270;29;20031;-82
2023/05/14 04:56:16;;;;;;;9.27;7.50;;;15.60;75.10;;;;;;4931246;29;20027;-82
2023/05/14 04:58:41;;;;;;;9.40;6.95;;;15.60;75.20;;;;;;4933882;29;20466;-82
2023/05/14 05:01:08;;;;;;;10.07;7.50;;;15.60;75.20;;;;;;4939235;29;20519;-82
2023/05/14 05:03:33;;;;;;;11.50;7.95;;;15.60;75.20;;;;;;4956258;29;20027;-82
2023/05/14 05:05:58;;;;;;;9.18;7.35;;;15.60;75.30;;;;;;4939245;29;20118;-83
2023/05/14 05:08:25;;;;;;;9.02;7.47;;;15.60;75.30;;;;;;4939301;29;20030;-83
2023/05/14 05:10:50;;;;;;;9.85;7.57;;;15.60;75.40;;;;;;4939002;29;20023;-82
2023/05/14 05:13:16;;;;;;;9.55;7.43;;;15.60;75.40;;;;;;4938749;29;20082;-81
2023/05/14 05:15:42;;;;;;;9.32;7.72;;;15.60;75.50;;;;;;4939028;29;20030;-81
2023/05/14 05:18:08;;;;;;;9.77;7.65;;;15.60;75.60;;;;;;4938864;29;20049;-82
2023/05/14 05:20:33;;;;;;;9.23;8.00;;;15.60;75.60;;;;;;4931217;29;20488;-81
2023/05/14 05:22:59;;;;;;;10.20;7.32;;;15.60;75.70;;;;;;4938838;29;20484;-82
2023/05/14 05:25:24;;;;;;;11.77;8.00;;;15.60;75.60;;;;;;4955846;29;20054;-81
2023/05/14 05:27:50;;;;;;;8.85;7.38;;;15.60;75.70;;;;;;4939022;29;20078;-81
2023/05/14 05:30:15;;;;;;;9.38;7.47;;;15.60;75.70;;;;;;4938559;29;20027;-80
2023/05/14 05:32:41;;;;;;;9.57;7.93;;;15.60;75.90;;;;;;4955884;29;20027;-81
2023/05/14 05:35:07;;;;;;;8.98;7.68;;;15.60;76.00;;;;;;4955748;29;20055;-81
2023/05/14 05:37:32;;;;;;;11.25;7.78;;;15.70;76.00;;;;;;4955689;28;20380;-80
2023/05/14 05:39:58;;;;;;;9.63;7.50;;;15.60;76.10;;;;;;4938699;29;20031;-81
2023/05/14 05:42:23;;;;;;;9.48;7.55;;;15.60;76.10;;;;;;4939024;29;20136;-82
2023/05/14 05:44:49;;;;;;;9.10;7.78;;;15.60;76.30;;;;;;4938517;29;20024;-80
2023/05/14 05:47:14;;;;;;;10.93;8.00;;;15.70;76.30;;;;;;4938820;29;20595;-80
2023/05/14 05:49:40;;;;;;;8.82;7.43;;;15.70;76.50;;;;;;4938449;29;20036;-81
2023/05/14 05:52:05;;;;;;;9.85;7.85;;;15.60;76.80;;;;;;4955931;29;20077;-84
2023/05/14 05:54:31;;;;;;;9.20;8.07;;;15.70;76.90;;;;;;4938324;29;20027;-81
2023/05/14 05:56:57;;;;;;;10.10;7.55;;;15.70;76.90;;;;;;4953352;29;20035;-82
2023/05/14 05:59:23;;;;;;;10.02;7.68;;;15.70;76.90;;;;;;4922000;29;20036;-81
2023/05/14 06:01:49;;;;;;;10.13;8.10;;;15.70;76.90;;;;;;4920050;29;20394;-82
2023/05/14 06:04:15;;;;;;;8.82;7.35;;;15.70;76.90;;;;;;4935586;29;20027;-82
2023/05/14 06:06:40;;;;;;;8.50;7.05;;;15.70;77.00;;;;;;4921014;29;20111;-81
2023/05/14 06:09:07;;;;;;;11.05;7.88;;;15.70;77.00;;;;;;4920310;29;20028;-81
2023/05/14 06:11:42;;;;;;;9.45;7.20;;;15.80;77.20;;;;;;4930295;29;20409;-80
2023/05/14 06:14:11;;;;;;;8.27;6.32;;;15.70;77.30;;;;;;4919970;29;20031;-82
2023/05/14 06:16:36;;;;;;;8.43;7.40;;;15.70;77.40;;;;;;4920511;29;20115;-83
2023/05/14 06:19:02;;;;;;;8.10;7.00;;;15.70;77.50;;;;;;4919788;29;20054;-82
2023/05/14 06:21:33;;;;;;;8.50;7.13;;;15.70;77.60;;;;;;4919861;29;20031;-82
2023/05/14 06:24:01;;;;;;;8.38;7.00;;;15.80;77.80;;;;;;4919734;29;20039;-83
2023/05/14 06:27:07;;;;;;;10.35;7.07;;;15.70;77.70;;;;;;4920132;29;20106;-81
2023/05/14 06:30:20;;;;;;;10.45;6.75;;;15.70;77.80;;;;;;4917366;29;20492;-81
2023/05/14 06:33:14;;;;;;;10.10;6.78;;;15.80;77.90;;;;;;4892950;29;20756;-81
2023/05/14 06:39:17;;;;;;;;;;;;;;;;;;;;;
2023/05/14 06:41:45;;;;;;;8.98;6.50;;;15.80;78.20;;;;;;4936090;29;20030;-81
2023/05/14 06:47:49;;;;;;;8.55;5.95;;;15.70;78.20;;;;;;4875911;29;20036;-82
2023/05/14 06:51:10;;;;;;;;;;;;;;;;;;;;;
2023/05/14 07:00:38;;;;;;;7.47;6.10;;;15.80;78.30;;;;;;4801958;29;20130;-82
2023/05/14 08:07:45;;;;;;;7.55;5.88;;;16.60;77.00;;;;;;4916152;29;20102;-84
2023/05/14 08:14:20;;;;;;;8.38;5.70;;;16.40;76.90;;;;;;4879742;29;20490;-83
2023/05/14 08:58:48;;;;;;;7.00;5.30;;;16.70;78.30;;;;;;4950261;29;20100;-83
2023/05/14 09:01:57;;;;;;;8.07;5.60;;;16.80;78.00;;;;;;4939804;28;20051;-83
2023/05/14 09:25:55;;;;;;;6.80;4.93;;;17.10;76.80;;;;;;4714529;30;20115;-84
2023/05/14 11:00:14;;;;;;;;;;;;;;;;;;;;;
2023/05/14 11:35:38;;;;;;;5.05;3.40;;;17.40;76.90;;;;;;4939657;29;20052;-84
2023/05/14 11:38:04;;;;;;;8.00;3.50;;;17.40;77.00;;;;;;4945756;29;20027;-84
2023/05/14 11:40:29;;;;;;;5.75;3.33;;;17.40;77.20;;;;;;4960177;29;20500;-84
2023/05/14 11:42:55;;;;;;;6.25;3.35;;;17.40;77.20;;;;;;4960340;29;20031;-84
2023/05/14 11:45:25;;;;;;;6.03;3.65;;;17.40;77.30;;;;;;4941209;29;20035;-84
2023/05/14 11:47:55;;;;;;;6.18;3.28;;;17.40;77.20;;;;;;4942647;29;20019;-84
2023/05/14 11:50:23;;;;;;;6.25;3.65;;;17.40;77.30;;;;;;4942261;29;20038;-84
2023/05/14 11:52:49;;;;;;;5.30;3.30;;;17.40;77.30;;;;;;4942585;29;20028;-83
2023/05/14 11:55:16;;;;;;;4.38;3.25;;;17.40;77.30;;;;;;4944190;29;20050;-85
2023/05/14 11:57:41;;;;;;;7.07;3.67;;;17.40;77.30;;;;;;4944016;28;20027;-83
2023/05/14 12:00:19;;;;;;;5.63;3.25;;;17.40;77.30;;;;;;4943802;29;20024;-83
2023/05/14 12:02:48;;;;;;;4.53;3.10;;;17.40;77.30;;;;;;4943590;29;20169;-83
2023/05/14 12:05:13;;;;;;;4.50;2.92;;;17.40;77.40;;;;;;4960204;29;20038;-83
2023/05/14 12:07:39;;;;;;;6.30;3.25;;;17.40;77.40;;;;;;4958796;28;20031;-83
2023/05/14 12:10:05;;;;;;;6.18;3.40;;;17.40;77.40;;;;;;4941706;29;20484;-88
2023/05/14 12:12:35;;;;;;;4.82;3.17;;;17.30;77.50;;;;;;4938719;29;20023;-85
2023/05/14 13:00:38;;;;;;;8.48;3.13;;;17.40;77.50;;;;;;4936117;29;20066;-82
2023/05/14 13:03:04;;;;;;;7.00;3.08;;;17.40;77.60;;;;;;4920500;29;20047;-82
2023/05/14 13:05:29;;;;;;;5.32;3.08;;;17.30;77.50;;;;;;4920210;29;20111;-83
2023/05/14 13:07:58;;;;;;;7.38;3.08;;;17.30;77.40;;;;;;4924707;29;20409;-83
2023/05/14 13:10:23;;;;;;;4.95;2.83;;;17.30;77.60;;;;;;4939338;29;20047;-82
2023/05/14 13:12:51;;;;;;;6.03;3.40;;;17.30;77.80;;;;;;4939201;29;20689;-83
2023/05/14 13:15:17;;;;;;;6.10;2.95;;;17.20;77.90;;;;;;4939048;29;20015;-83
2023/05/14 13:17:42;;;;;;;6.05;2.95;;;17.20;78.10;;;;;;4939288;28;20027;-82
2023/05/14 13:20:08;;;;;;;5.45;3.00;;;17.20;78.20;;;;;;4956527;29;20039;-82
2023/05/14 13:22:34;;;;;;;4.50;3.05;;;17.20;78.40;;;;;;4939266;29;20024;-83
2023/05/14 13:24:59;;;;;;;4.85;3.00;;;17.10;78.40;;;;;;4938923;29;20116;-83
2023/05/14 13:27:25;;;;;;;5.10;3.03;;;17.10;78.50;;;;;;4938937;28;20030;-84
2023/05/14 13:29:51;;;;;;;6.25;3.10;;;17.20;78.60;;;;;;4956176;29;20067;-84
2023/05/14 13:32:16;;;;;;;3.75;2.78;;;17.10;78.60;;;;;;4938880;29;20027;-84
2023/05/14 13:34:42;;;;;;;5.63;2.78;;;17.10;78.60;;;;;;4938679;29;20024;-83
2023/05/14 13:37:08;;;;;;;4.32;2.88;;;17.10;78.60;;;;;;4939000;29;20027;-83
2023/05/14 13:39:34;;;;;;;4.68;2.92;;;17.10;78.70;;;;;;4956377;28;20026;-83
2023/05/14 13:42:00;;;;;;;4.20;2.95;;;17.10;78.80;;;;;;4938850;29;20062;-84
2023/05/14 13:44:25;;;;;;;4.95;3.10;;;17.10;78.80;;;;;;4938571;29;20058;-83
2023/05/14 13:46:51;;;;;;;5.32;3.17;;;17.10;78.80;;;;;;4938618;29;20492;-83
2023/05/14 13:49:17;;;;;;;4.13;2.80;;;17.10;78.90;;;;;;4954788;28;20050;-83
2023/05/14 13:51:43;;;;;;;5.35;2.63;;;17.10;78.90;;;;;;4938421;29;20039;-83
2023/05/14 13:54:09;;;;;;;5.13;2.92;;;17.10;78.90;;;;;;4955692;29;20110;-83
2023/05/14 13:56:34;;;;;;;3.35;2.35;;;17.10;78.90;;;;;;4939067;29;20034;-84
2023/05/14 13:59:00;;;;;;;4.50;2.95;;;17.10;78.90;;;;;;4940707;29;20027;-83
2023/05/14 14:01:25;;;;;;;4.75;2.70;;;17.10;78.90;;;;;;4942934;29;20125;-84
2023/05/14 14:03:51;;;;;;;4.90;2.63;;;17.10;78.90;;;;;;4938650;29;20031;-83
2023/05/14 14:06:16;;;;;;;5.03;2.65;;;17.00;78.90;;;;;;4938506;29;20598;-83
2023/05/14 14:08:42;;;;;;;6.20;3.08;;;17.10;79.00;;;;;;4955551;28;20102;-83
2023/05/14 14:11:07;;;;;;;6.50;2.90;;;17.00;78.90;;;;;;4938153;29;20037;-83
2023/05/14 14:13:33;;;;;;;6.65;2.78;;;17.00;79.00;;;;;;4955297;29;20033;-83
2023/05/14 14:15:58;;;;;;;6.60;2.95;;;17.10;79.00;;;;;;4938439;29;20023;-84
2023/05/14 14:18:24;;;;;;;7.07;2.92;;;17.10;79.00;;;;;;4937981;29;20027;-84
2023/05/14 14:20:49;;;;;;;4.95;2.70;;;17.10;79.00;;;;;;4938219;29;20099;-84
2023/05/14 14:23:15;;;;;;;5.70;2.78;;;17.10;78.90;;;;;;4938536;29;20031;-83
2023/05/14 14:25:40;;;;;;;6.50;2.83;;;17.10;78.70;;;;;;4938198;29;20058;-83
2023/05/14 14:28:06;;;;;;;6.22;2.95;;;17.10;78.60;;;;;;4955115;28;20085;-83
2023/05/14 14:30:31;;;;;;;4.85;2.72;;;17.20;78.70;;;;;;4937881;29;20024;-84
2023/05/14 14:32:59;;;;;;;6.38;2.90;;;17.20;78.60;;;;;;4955218;29;20024;-83
2023/05/14 14:35:25;;;;;;;4.65;2.72;;;17.20;78.50;;;;;;4937876;29;20027;-84
2023/05/14 14:37:52;;;;;;;4.78;2.58;;;17.20;78.50;;;;;;4927598;29;20112;-83
2023/05/14 14:40:18;;;;;;;5.68;2.97;;;17.20;78.50;;;;;;4918850;29;20036;-82
2023/05/14 14:42:44;;;;;;;6.78;2.75;;;17.20;78.50;;;;;;4918864;29;20032;-83
2023/05/14 14:45:11;;;;;;;5.38;3.00;;;17.20;78.50;;;;;;4935722;29;20031;-82
2023/05/14 14:47:43;;;;;;;4.95;2.83;;;17.20;78.60;;;;;;4919265;29;20075;-85
2023/05/14 14:50:08;;;;;;;5.75;2.78;;;17.10;78.60;;;;;;4918871;29;20063;-82
2023/05/14 14:52:35;;;;;;;5.25;2.83;;;17.10;78.80;;;;;;4918953;29;20442;-82
2023/05/14 14:55:00;;;;;;;5.70;2.90;;;17.10;78.90;;;;;;4918381;29;20019;-83
2023/05/14 14:57:26;;;;;;;4.25;2.60;;;17.10;79.00;;;;;;4918731;29;20078;-83
2023/05/14 14:59:51;;;;;;;5.75;2.80;;;17.00;79.10;;;;;;4935184;29;20609;-83
2023/05/14 15:02:17;;;;;;;5.80;2.90;;;17.00;79.30;;;;;;4918594;29;20036;-83
2023/05/14 15:04:42;;;;;;;4.72;2.70;;;17.00;79.30;;;;;;4918338;29;20111;-84
2023/05/14 15:07:08;;;;;;;5.72;3.08;;;17.00;79.30;;;;;;4918514;29;20396;-84
2023/05/14 15:09:33;;;;;;;4.28;2.30;;;17.00;79.40;;;;;;4935494;29;20056;-83
2023/05/14 15:11:59;;;;;;;4.35;2.75;;;17.00;79.40;;;;;;4918346;29;20032;-83
2023/05/14 15:14:24;;;;;;;5.93;2.90;;;17.00;79.40;;;;;;4918326;29;20031;-83
2023/05/14 15:16:50;;;;;;;6.20;2.75;;;17.00;79.50;;;;;;4935457;29;20026;-83
2023/05/14 15:19:15;;;;;;;4.30;2.30;;;17.00;79.50;;;;;;4918569;29;20596;-83
2023/05/14 15:21:41;;;;;;;4.28;2.58;;;17.00;79.50;;;;;;4935503;29;20039;-83
2023/05/14 15:24:11;;;;;;;4.45;2.63;;;17.00;79.50;;;;;;4918095;29;20028;-83
2023/05/14 15:26:36;;;;;;;5.47;2.70;;;17.00;79.60;;;;;;4918540;29;20028;-83
2023/05/14 15:29:03;;;;;;;6.28;2.80;;;17.00;79.60;;;;;;4918196;29;20028;-83
2023/05/14 15:31:28;;;;;;;5.22;2.35;;;17.00;79.60;;;;;;4918250;29;20563;-83
2023/05/14 15:33:54;;;;;;;4.18;2.63;;;16.90;79.60;;;;;;4918018;29;20063;-83
2023/05/14 15:36:20;;;;;;;5.43;2.60;;;17.00;79.60;;;;;;4918244;29;20041;-83
2023/05/14 15:38:46;;;;;;;4.80;2.70;;;16.90;79.60;;;;;;4918165;29;20032;-83
2023/05/14 15:41:11;;;;;;;5.55;2.38;;;17.00;79.70;;;;;;4918366;29;20079;-83
2023/05/14 15:43:37;;;;;;;4.38;2.50;;;16.90;79.60;;;;;;4917944;29;20036;-84
2023/05/14 15:46:02;;;;;;;4.63;2.58;;;17.00;79.70;;;;;;4918103;29;20440;-83
2023/05/14 15:48:28;;;;;;;3.92;2.50;;;17.00;79.80;;;;;;4918137;29;20028;-83
2023/05/14 15:50:53;;;;;;;4.25;2.30;;;17.00;79.70;;;;;;4934984;29;20024;-83
2023/05/14 15:53:19;;;;;;;3.55;2.30;;;17.00;79.70;;;;;;4917628;29;20066;-83
2023/05/14 15:55:47;;;;;;;4.35;2.40;;;16.90;79.70;;;;;;4918391;29;20038;-82
2023/05/14 15:58:12;;;;;;;4.80;2.50;;;17.00;79.70;;;;;;4918037;29;20123;-83
2023/05/14 16:00:38;;;;;;;4.18;2.40;;;17.00;79.60;;;;;;4918034;29;20118;-83
2023/05/14 16:03:03;;;;;;;3.83;2.58;;;17.00;79.60;;;;;;4918459;29;20042;-83
2023/05/14 16:05:29;;;;;;;4.30;2.53;;;17.00;79.50;;;;;;4934735;29;20477;-82
2023/05/14 16:07:55;;;;;;;5.13;2.40;;;17.00;79.50;;;;;;4918248;29;20028;-83
2023/05/14 16:10:20;;;;;;;3.85;2.20;;;17.10;79.50;;;;;;4934926;29;20056;-83
2023/05/14 16:12:46;;;;;;;3.53;2.20;;;17.00;79.40;;;;;;4920310;29;20038;-82
2023/05/14 16:15:11;;;;;;;4.57;2.47;;;17.10;79.40;;;;;;4938398;29;20024;-83
2023/05/14 16:17:37;;;;;;;4.05;2.38;;;17.10;79.40;;;;;;4938608;29;20034;-83
2023/05/14 16:20:06;;;;;;;4.55;2.58;;;17.10;79.40;;;;;;4921479;29;20091;-84
2023/05/14 16:22:33;;;;;;;3.88;2.50;;;17.10;79.40;;;;;;4938386;29;20027;-83
2023/05/14 16:24:59;;;;;;;4.55;2.60;;;17.10;79.40;;;;;;4920559;29;20390;-84
2023/05/14 16:27:24;;;;;;;3.97;2.30;;;17.00;79.50;;;;;;4920611;29;20032;-83
2023/05/14 16:29:50;;;;;;;4.32;2.53;;;17.00;79.60;;;;;;4937472;29;20555;-83
2023/05/14 16:32:16;;;;;;;3.75;2.30;;;17.00;79.70;;;;;;4937521;29;20039;-83
2023/05/14 16:34:48;;;;;;;3.63;2.33;;;17.00;79.70;;;;;;4920360;29;20388;-83
2023/05/14 16:37:18;;;;;;;4.00;2.40;;;16.90;79.80;;;;;;4937394;29;20022;-83
2023/05/14 16:39:44;;;;;;;3.65;2.25;;;17.00;80.00;;;;;;4937086;29;20473;-83
2023/05/14 16:42:09;;;;;;;4.55;2.28;;;16.90;79.90;;;;;;4920268;29;20032;-83
2023/05/14 16:44:35;;;;;;;3.22;2.17;;;16.90;80.00;;;;;;4937150;29;20385;-83
2023/05/14 16:47:01;;;;;;;3.65;2.30;;;16.90;80.10;;;;;;4920171;29;20101;-83
2023/05/14 16:49:26;;;;;;;4.63;2.20;;;16.90;80.00;;;;;;4920046;29;20023;-83
2023/05/14 16:51:51;;;;;;;3.83;2.20;;;16.90;80.10;;;;;;4936922;29;20034;-83
2023/05/14 16:54:17;;;;;;;3.28;2.25;;;16.90;80.10;;;;;;4919750;29;20297;-83
2023/05/14 16:56:46;;;;;;;3.53;2.30;;;16.90;80.20;;;;;;4919867;29;20079;-83
2023/05/14 16:59:15;;;;;;;3.50;2.25;;;16.90;80.20;;;;;;4919811;29;20028;-83
2023/05/14 17:01:42;;;;;;;3.60;2.40;;;16.90;80.20;;;;;;4936762;29;20035;-83
2023/05/14 17:04:08;;;;;;;4.63;2.50;;;16.90;80.20;;;;;;4919516;29;20031;-83
2023/05/14 17:06:35;;;;;;;3.90;2.50;;;16.90;80.30;;;;;;4936665;29;20034;-83
2023/05/14 17:09:00;;;;;;;4.00;2.03;;;16.90;80.30;;;;;;4919816;29;20032;-84
2023/05/14 17:11:26;;;;;;;4.30;2.28;;;16.90;80.30;;;;;;4919535;29;20059;-84
2023/05/14 17:13:51;;;;;;;3.45;2.20;;;16.90;80.30;;;;;;4919527;29;20027;-84
2023/05/14 17:16:18;;;;;;;3.90;2.22;;;16.90;80.30;;;;;;4919670;29;20127;-84
2023/05/14 17:18:44;;;;;;;3.85;2.40;;;16.90;80.30;;;;;;4936747;29;20024;-82
2023/05/14 17:21:10;;;;;;;3.55;2.28;;;16.90;80.30;;;;;;4919776;29;20032;-83
2023/05/14 17:23:35;;;;;;;3.10;2.10;;;16.90;80.40;;;;;;4918958;29;20034;-83
2023/05/14 17:26:01;;;;;;;3.58;2.13;;;16.90;80.40;;;;;;4936438;29;20030;-83
2023/05/14 17:28:28;;;;;;;3.80;2.15;;;16.90;80.40;;;;;;4936329;29;20032;-83
2023/05/14 17:30:55;;;;;;;3.40;2.30;;;16.90;80.40;;;;;;4936446;29;20024;-83
2023/05/14 17:33:20;;;;;;;3.17;2.20;;;16.90;80.50;;;;;;4972128;23;20046;-84
2023/05/14 17:35:46;;;;;;;3.40;2.25;;;16.90;80.40;;;;;;4938122;29;20040;-85
2023/05/14 17:38:12;;;;;;;3.05;2.10;;;16.90;80.30;;;;;;4958518;29;20051;-85
2023/05/14 17:40:39;;;;;;;2.90;2.00;;;16.90;80.40;;;;;;4939919;29;20061;-85
2023/05/14 17:43:05;;;;;;;3.53;2.13;;;16.90;80.30;;;;;;4939478;28;20174;-85
2023/05/14 17:45:31;;;;;;;3.60;2.10;;;16.90;80.30;;;;;;4956582;28;20117;-84
2023/05/14 17:47:56;;;;;;;3.92;2.20;;;17.00;80.20;;;;;;4976772;28;20045;-85
2023/05/14 17:50:21;;;;;;;4.55;2.55;;;17.00;80.20;;;;;;4958815;28;20120;-85
2023/05/14 17:52:47;;;;;;;3.60;2.20;;;17.00;80.10;;;;;;4956646;28;20149;-84
2023/05/14 17:55:12;;;;;;;3.78;2.20;;;17.00;80.10;;;;;;4958152;28;20018;-85
2023/05/14 17:57:38;;;;;;;3.88;2.30;;;17.00;80.10;;;;;;4976648;28;20022;-85
2023/05/14 18:00:04;;;;;;;3.17;2.05;;;17.00;80.10;;;;;;4958929;28;20023;-85
2023/05/14 18:02:30;;;;;;;4.13;2.28;;;17.00;80.20;;;;;;4976717;28;20031;-84
2023/05/14 18:04:55;;;;;;;3.20;2.10;;;16.90;80.10;;;;;;4975607;28;20025;-85